sensor_id;sensor_type;location;lat;lon;timestamp;pressure;altitude;pressure_sealevel;temperature;humidity
46876;BME280;32866;50.160;14.768;2023-01-16T00:00:12;98404.25;;;0.97;100.00
46876;BME280;32866;50.160;14.768;2023-01-16T00:02:38;98435.34;;;1.20;100.00
46876;BME280;32866;50.160;14.768;2023-01-16T00:05:03;98400.78;;;1.00;100.00
46876;BME280;32866;50.160;14.768;2023-01-16T00:07:29;98415.09;;;0.93;100.00
46876;BME280;32866;50.160;14.768;2023-01-16T00:09:54;98385.91;;;0.78;100.00
46876;BME280;32866;50.160;14.768;2023-01-16T00:12:20;98425.13;;;0.93;100.00
46876;BME280;32866;50.160;14.768;2023-01-16T00:14:45;98407.47;;;0.81;100.00
46876;BME280;32866;50.160;14.768;2023-01-16T00:17:10;98403.78;;;0.57;100.00
46876;BME280;32866;50.160;14.768;2023-01-16T00:19:36;98405.91;;;0.80;100.00
46876;BME280;32866;50.160;14.768;2023-01-16T00:22:02;98400.22;;;0.71;100.00
46876;BME280;32866;50.160;14.768;2023-01-16T00:24:27;98408.34;;;0.67;100.00
46876;BME280;32866;50.160;14.768;2023-01-16T00:26:52;98405.25;;;0.65;100.00
46876;BME280;32866;50.160;14.768;2023-01-16T00:29:18;98394.44;;;0.72;100.00
46876;BME280;32866;50.160;14.768;2023-01-16T00:31:43;98409.00;;;0.79;100.00
46876;BME280;32866;50.160;14.768;2023-01-16T00:34:09;98405.94;;;0.77;100.00
46876;BME280;32866;50.160;14.768;2023-01-16T00:36:34;98396.06;;;0.59;100.00
46876;BME280;32866;50.160;14.768;2023-01-16T00:38:59;98384.22;;;0.42;100.00
46876;BME280;32866;50.160;14.768;2023-01-16T00:41:25;98389.13;;;0.54;100.00
46876;BME280;32866;50.160;14.768;2023-01-16T00:43:50;98389.53;;;0.53;100.00
46876;BME280;32866;50.160;14.768;2023-01-16T00:46:17;98391.53;;;0.38;100.00
46876;BME280;32866;50.160;14.768;2023-01-16T00:48:42;98376.50;;;0.41;100.00
46876;BME280;32866;50.160;14.768;2023-01-16T00:51:22;98378.78;;;0.46;100.00
46876;BME280;32866;50.160;14.768;2023-01-16T00:53:48;98369.50;;;0.54;100.00
46876;BME280;32866;50.160;14.768;2023-01-16T00:56:13;98382.09;;;0.71;100.00
46876;BME280;32866;50.160;14.768;2023-01-16T00:58:38;98372.06;;;0.76;100.00
46876;BME280;32866;50.160;14.768;2023-01-16T01:01:04;98356.31;;;0.70;100.00
46876;BME280;32866;50.160;14.768;2023-01-16T01:03:29;98377.81;;;0.78;100.00
46876;BME280;32866;50.160;14.768;2023-01-16T01:05:55;98374.44;;;0.66;100.00
46876;BME280;32866;50.160;14.768;2023-01-16T01:08:21;98378.69;;;0.64;100.00
46876;BME280;32866;50.160;14.768;2023-01-16T01:10:46;98366.81;;;0.54;100.00
46876;BME280;32866;50.160;14.768;2023-01-16T01:13:12;98343.31;;;0.54;100.00
46876;BME280;32866;50.160;14.768;2023-01-16T01:15:37;98371.84;;;1.04;100.00
46876;BME280;32866;50.160;14.768;2023-01-16T01:18:03;98338.31;;;1.02;100.00
46876;BME280;32866;50.160;14.768;2023-01-16T01:20:29;98376.88;;;1.44;100.00
46876;BME280;32866;50.160;14.768;2023-01-16T01:22:54;98351.38;;;1.48;100.00
46876;BME280;32866;50.160;14.768;2023-01-16T01:25:20;98336.81;;;1.39;100.00
46876;BME280;32866;50.160;14.768;2023-01-16T01:27:45;98370.00;;;1.77;100.00
46876;BME280;32866;50.160;14.768;2023-01-16T01:30:10;98344.22;;;1.69;100.00
46876;BME280;32866;50.160;14.768;2023-01-16T01:32:36;98343.38;;;1.76;100.00
46876;BME280;32866;50.160;14.768;2023-01-16T01:35:06;98315.28;;;1.70;100.00
46876;BME280;32866;50.160;14.768;2023-01-16T01:37:32;98341.63;;;1.96;100.00
46876;BME280;32866;50.160;14.768;2023-01-16T01:39:58;98352.41;;;1.96;100.00
46876;BME280;32866;50.160;14.768;2023-01-16T01:42:23;98333.31;;;1.80;100.00
46876;BME280;32866;50.160;14.768;2023-01-16T01:45:25;98343.53;;;1.96;100.00
46876;BME280;32866;50.160;14.768;2023-01-16T01:50:54;98322.50;;;1.80;100.00
46876;BME280;32866;50.160;14.768;2023-01-16T01:53:27;98293.94;;;1.48;100.00
46876;BME280;32866;50.160;14.768;2023-01-16T01:55:56;98307.31;;;1.59;100.00
46876;BME280;32866;50.160;14.768;2023-01-16T01:58:26;98321.91;;;1.65;100.00
46876;BME280;32866;50.160;14.768;2023-01-16T02:00:55;98315.13;;;1.50;100.00
46876;BME280;32866;50.160;14.768;2023-01-16T02:03:35;98297.81;;;1.43;100.00
46876;BME280;32866;50.160;14.768;2023-01-16T02:06:05;98315.34;;;1.66;100.00
46876;BME280;32866;50.160;14.768;2023-01-16T02:08:33;98317.25;;;1.65;100.00
46876;BME280;32866;50.160;14.768;2023-01-16T02:11:07;98313.94;;;1.51;100.00
46876;BME280;32866;50.160;14.768;2023-01-16T02:13:36;98292.88;;;1.38;100.00
46876;BME280;32866;50.160;14.768;2023-01-16T02:16:03;98293.41;;;1.22;100.00
46876;BME280;32866;50.160;14.768;2023-01-16T02:18:47;98285.69;;;1.24;100.00
46876;BME280;32866;50.160;14.768;2023-01-16T02:21:59;98314.81;;;1.40;100.00
46876;BME280;32866;50.160;14.768;2023-01-16T02:35:57;98288.38;;;0.83;100.00
46876;BME280;32866;50.160;14.768;2023-01-16T02:41:25;98277.09;;;0.95;100.00
46876;BME280;32866;50.160;14.768;2023-01-16T02:43:58;98265.50;;;0.98;100.00
46876;BME280;32866;50.160;14.768;2023-01-16T02:46:32;98275.19;;;0.92;100.00
46876;BME280;32866;50.160;14.768;2023-01-16T02:52:09;98263.97;;;1.01;100.00
46876;BME280;32866;50.160;14.768;2023-01-16T02:55:01;98248.66;;;0.87;100.00
46876;BME280;32866;50.160;14.768;2023-01-16T02:57:36;98252.78;;;1.02;100.00
46876;BME280;32866;50.160;14.768;2023-01-16T03:00:05;98231.63;;;0.93;100.00
46876;BME280;32866;50.160;14.768;2023-01-16T03:02:31;98221.03;;;0.72;100.00
46876;BME280;32866;50.160;14.768;2023-01-16T03:04:56;98198.63;;;0.82;100.00
46876;BME280;32866;50.160;14.768;2023-01-16T03:15:39;98218.97;;;1.25;100.00
46876;BME280;32866;50.160;14.768;2023-01-16T03:26:49;98181.44;;;1.03;100.00
46876;BME280;32866;50.160;14.768;2023-01-16T03:34:42;98201.25;;;1.24;100.00
46876;BME280;32866;50.160;14.768;2023-01-16T03:37:21;98195.56;;;1.15;100.00
46876;BME280;32866;50.160;14.768;2023-01-16T03:39:56;98191.34;;;1.14;100.00
46876;BME280;32866;50.160;14.768;2023-01-16T03:42:49;98185.50;;;1.19;100.00
46876;BME280;32866;50.160;14.768;2023-01-16T03:45:22;98180.59;;;1.10;100.00
46876;BME280;32866;50.160;14.768;2023-01-16T03:48:04;98162.28;;;0.94;100.00
46876;BME280;32866;50.160;14.768;2023-01-16T03:50:34;98177.72;;;0.90;100.00
46876;BME280;32866;50.160;14.768;2023-01-16T03:53:06;98156.34;;;0.68;100.00
46876;BME280;32866;50.160;14.768;2023-01-16T03:55:41;98165.19;;;0.72;100.00
46876;BME280;32866;50.160;14.768;2023-01-16T03:58:14;98123.41;;;0.50;100.00
46876;BME280;32866;50.160;14.768;2023-01-16T04:04:01;98153.97;;;0.78;100.00
46876;BME280;32866;50.160;14.768;2023-01-16T04:09:02;98132.47;;;0.70;100.00
46876;BME280;32866;50.160;14.768;2023-01-16T04:11:30;98143.97;;;0.74;100.00
46876;BME280;32866;50.160;14.768;2023-01-16T04:13:58;98140.97;;;0.65;100.00
46876;BME280;32866;50.160;14.768;2023-01-16T04:16:26;98119.66;;;0.44;100.00
46876;BME280;32866;50.160;14.768;2023-01-16T04:18:55;98136.22;;;0.39;100.00
46876;BME280;32866;50.160;14.768;2023-01-16T04:21:25;98094.13;;;0.14;100.00
46876;BME280;32866;50.160;14.768;2023-01-16T04:23:52;98120.03;;;0.42;100.00
46876;BME280;32866;50.160;14.768;2023-01-16T04:26:18;98113.03;;;0.48;100.00
46876;BME280;32866;50.160;14.768;2023-01-16T04:28:44;98105.72;;;0.49;100.00
46876;BME280;32866;50.160;14.768;2023-01-16T04:31:09;98098.13;;;0.36;100.00
46876;BME280;32866;50.160;14.768;2023-01-16T04:33:34;98111.13;;;0.49;100.00
46876;BME280;32866;50.160;14.768;2023-01-16T04:36:00;98098.22;;;0.67;100.00
46876;BME280;32866;50.160;14.768;2023-01-16T04:38:25;98083.34;;;0.52;100.00
46876;BME280;32866;50.160;14.768;2023-01-16T04:40:53;98074.84;;;0.57;100.00
46876;BME280;32866;50.160;14.768;2023-01-16T04:43:18;98087.06;;;0.65;100.00
46876;BME280;32866;50.160;14.768;2023-01-16T04:45:46;98087.09;;;0.62;100.00
46876;BME280;32866;50.160;14.768;2023-01-16T04:48:11;98064.91;;;0.47;100.00
46876;BME280;32866;50.160;14.768;2023-01-16T04:50:37;98076.56;;;0.74;100.00
46876;BME280;32866;50.160;14.768;2023-01-16T04:53:03;98057.06;;;0.60;100.00
46876;BME280;32866;50.160;14.768;2023-01-16T04:55:28;98064.06;;;0.57;100.00
46876;BME280;32866;50.160;14.768;2023-01-16T04:57:54;98071.53;;;0.77;100.00
46876;BME280;32866;50.160;14.768;2023-01-16T05:00:19;98053.28;;;0.53;100.00
46876;BME280;32866;50.160;14.768;2023-01-16T05:02:45;98063.75;;;0.82;100.00
46876;BME280;32866;50.160;14.768;2023-01-16T05:05:10;98055.88;;;0.95;100.00
46876;BME280;32866;50.160;14.768;2023-01-16T05:07:36;98043.56;;;0.94;100.00
46876;BME280;32866;50.160;14.768;2023-01-16T05:10:01;98065.47;;;1.27;100.00
46876;BME280;32866;50.160;14.768;2023-01-16T05:12:27;98058.06;;;1.35;100.00
46876;BME280;32866;50.160;14.768;2023-01-16T05:14:52;98031.19;;;1.27;100.00
46876;BME280;32866;50.160;14.768;2023-01-16T05:17:17;98042.16;;;1.40;100.00
46876;BME280;32866;50.160;14.768;2023-01-16T05:19:47;98021.94;;;1.25;100.00
46876;BME280;32866;50.160;14.768;2023-01-16T05:22:13;98017.84;;;1.40;100.00
46876;BME280;32866;50.160;14.768;2023-01-16T05:24:38;98020.31;;;1.31;100.00
46876;BME280;32866;50.160;14.768;2023-01-16T05:27:04;98016.69;;;1.41;100.00
46876;BME280;32866;50.160;14.768;2023-01-16T05:29:29;98013.66;;;1.39;100.00
46876;BME280;32866;50.160;14.768;2023-01-16T05:31:54;98009.13;;;1.33;100.00
46876;BME280;32866;50.160;14.768;2023-01-16T05:34:20;97992.53;;;1.34;100.00
46876;BME280;32866;50.160;14.768;2023-01-16T05:36:45;98005.03;;;1.48;100.00
46876;BME280;32866;50.160;14.768;2023-01-16T05:39:11;97984.44;;;1.30;100.00
46876;BME280;32866;50.160;14.768;2023-01-16T05:41:36;98003.75;;;1.56;100.00
46876;BME280;32866;50.160;14.768;2023-01-16T05:44:01;97967.38;;;1.37;100.00
46876;BME280;32866;50.160;14.768;2023-01-16T05:46:27;97978.56;;;1.39;100.00
46876;BME280;32866;50.160;14.768;2023-01-16T05:48:52;97981.25;;;1.39;100.00
46876;BME280;32866;50.160;14.768;2023-01-16T05:51:18;97987.31;;;1.20;100.00
46876;BME280;32866;50.160;14.768;2023-01-16T05:53:43;97972.34;;;0.88;100.00
46876;BME280;32866;50.160;14.768;2023-01-16T05:56:10;97965.69;;;0.69;100.00
46876;BME280;32866;50.160;14.768;2023-01-16T05:58:36;97975.81;;;0.88;100.00
46876;BME280;32866;50.160;14.768;2023-01-16T06:01:02;97971.38;;;0.74;100.00
46876;BME280;32866;50.160;14.768;2023-01-16T06:03:27;97953.38;;;0.37;100.00
46876;BME280;32866;50.160;14.768;2023-01-16T06:05:53;97971.56;;;0.29;100.00
46876;BME280;32866;50.160;14.768;2023-01-16T06:08:18;97968.00;;;0.36;100.00
46876;BME280;32866;50.160;14.768;2023-01-16T06:10:43;97965.00;;;0.30;100.00
46876;BME280;32866;50.160;14.768;2023-01-16T06:13:13;97965.06;;;0.23;100.00
46876;BME280;32866;50.160;14.768;2023-01-16T06:15:38;97962.66;;;0.32;100.00
46876;BME280;32866;50.160;14.768;2023-01-16T06:20:39;97956.72;;;0.14;100.00
46876;BME280;32866;50.160;14.768;2023-01-16T06:23:05;97955.19;;;0.13;100.00
46876;BME280;32866;50.160;14.768;2023-01-16T06:25:30;97916.06;;;-0.33;100.00
46876;BME280;32866;50.160;14.768;2023-01-16T06:27:56;97935.53;;;-0.22;100.00
46876;BME280;32866;50.160;14.768;2023-01-16T06:30:21;97915.50;;;-0.59;100.00
46876;BME280;32866;50.160;14.768;2023-01-16T06:32:50;97883.75;;;-0.75;100.00
46876;BME280;32866;50.160;14.768;2023-01-16T06:35:16;97911.63;;;-0.54;100.00
46876;BME280;32866;50.160;14.768;2023-01-16T06:37:41;97874.41;;;-0.63;100.00
46876;BME280;32866;50.160;14.768;2023-01-16T06:40:07;97870.28;;;-0.71;100.00
46876;BME280;32866;50.160;14.768;2023-01-16T06:42:33;97896.34;;;-0.65;100.00
46876;BME280;32866;50.160;14.768;2023-01-16T06:44:58;97891.81;;;-0.75;100.00
46876;BME280;32866;50.160;14.768;2023-01-16T06:47:23;97887.25;;;-0.78;100.00
46876;BME280;32866;50.160;14.768;2023-01-16T06:49:49;97876.50;;;-0.82;100.00
46876;BME280;32866;50.160;14.768;2023-01-16T06:52:14;97882.75;;;-0.92;100.00
46876;BME280;32866;50.160;14.768;2023-01-16T06:54:39;97886.09;;;-0.77;100.00
46876;BME280;32866;50.160;14.768;2023-01-16T06:57:05;97859.19;;;-0.81;100.00
46876;BME280;32866;50.160;14.768;2023-01-16T06:59:30;97869.09;;;-0.70;100.00
46876;BME280;32866;50.160;14.768;2023-01-16T07:01:56;97874.06;;;-0.69;100.00
46876;BME280;32866;50.160;14.768;2023-01-16T07:04:21;97852.94;;;-0.70;100.00
46876;BME280;32866;50.160;14.768;2023-01-16T07:06:47;97848.31;;;-0.66;100.00
46876;BME280;32866;50.160;14.768;2023-01-16T07:09:14;97837.09;;;-0.61;100.00
46876;BME280;32866;50.160;14.768;2023-01-16T07:11:40;97846.84;;;-0.36;100.00
46876;BME280;32866;50.160;14.768;2023-01-16T07:14:05;97848.53;;;-0.15;100.00
46876;BME280;32866;50.160;14.768;2023-01-16T07:16:48;97842.19;;;-0.32;100.00
46876;BME280;32866;50.160;14.768;2023-01-16T07:19:32;97798.94;;;-0.52;100.00
46876;BME280;32866;50.160;14.768;2023-01-16T07:22:16;97811.78;;;-0.29;100.00
46876;BME280;32866;50.160;14.768;2023-01-16T07:25:08;97839.53;;;-0.02;100.00
46876;BME280;32866;50.160;14.768;2023-01-16T07:27:34;97812.06;;;-0.20;100.00
46876;BME280;32866;50.160;14.768;2023-01-16T07:30:00;97823.97;;;-0.21;100.00
46876;BME280;32866;50.160;14.768;2023-01-16T07:32:26;97836.09;;;-0.36;100.00
46876;BME280;32866;50.160;14.768;2023-01-16T07:34:51;97816.59;;;-0.48;100.00
46876;BME280;32866;50.160;14.768;2023-01-16T07:37:16;97803.84;;;-0.40;100.00
46876;BME280;32866;50.160;14.768;2023-01-16T07:39:42;97822.44;;;-0.22;100.00
46876;BME280;32866;50.160;14.768;2023-01-16T07:42:22;97810.91;;;-0.23;100.00
46876;BME280;32866;50.160;14.768;2023-01-16T07:44:48;97822.75;;;-0.13;100.00
46876;BME280;32866;50.160;14.768;2023-01-16T07:47:13;97824.84;;;0.03;100.00
46876;BME280;32866;50.160;14.768;2023-01-16T07:49:39;97833.66;;;-0.27;100.00
46876;BME280;32866;50.160;14.768;2023-01-16T07:52:04;97837.00;;;-0.16;100.00
46876;BME280;32866;50.160;14.768;2023-01-16T07:54:30;97832.16;;;0.03;100.00
46876;BME280;32866;50.160;14.768;2023-01-16T07:56:55;97824.53;;;-0.03;100.00
46876;BME280;32866;50.160;14.768;2023-01-16T07:59:20;97824.38;;;0.39;100.00
46876;BME280;32866;50.160;14.768;2023-01-16T08:01:46;97810.44;;;0.68;100.00
46876;BME280;32866;50.160;14.768;2023-01-16T08:04:12;97809.09;;;1.03;100.00
46876;BME280;32866;50.160;14.768;2023-01-16T08:06:38;97802.66;;;1.21;100.00
46876;BME280;32866;50.160;14.768;2023-01-16T08:09:09;97794.25;;;1.15;100.00
46876;BME280;32866;50.160;14.768;2023-01-16T08:11:34;97803.56;;;1.34;100.00
46876;BME280;32866;50.160;14.768;2023-01-16T08:14:00;97796.09;;;1.42;100.00
46876;BME280;32866;50.160;14.768;2023-01-16T08:16:26;97779.41;;;1.67;100.00
46876;BME280;32866;50.160;14.768;2023-01-16T08:18:52;97798.75;;;2.38;100.00
46876;BME280;32866;50.160;14.768;2023-01-16T08:21:17;97788.19;;;2.60;100.00
46876;BME280;32866;50.160;14.768;2023-01-16T08:23:43;97775.81;;;2.92;100.00
46876;BME280;32866;50.160;14.768;2023-01-16T08:26:10;97780.84;;;3.23;100.00
46876;BME280;32866;50.160;14.768;2023-01-16T08:28:36;97752.59;;;2.78;100.00
46876;BME280;32866;50.160;14.768;2023-01-16T08:31:06;97754.38;;;2.69;100.00
46876;BME280;32866;50.160;14.768;2023-01-16T08:33:37;97758.75;;;2.95;100.00
46876;BME280;32866;50.160;14.768;2023-01-16T08:36:05;97748.09;;;3.47;100.00
46876;BME280;32866;50.160;14.768;2023-01-16T08:38:31;97725.50;;;3.24;100.00
46876;BME280;32866;50.160;14.768;2023-01-16T08:40:56;97737.25;;;3.47;100.00
46876;BME280;32866;50.160;14.768;2023-01-16T08:43:22;97731.84;;;3.47;100.00
46876;BME280;32866;50.160;14.768;2023-01-16T08:48:58;97724.75;;;2.94;100.00
46876;BME280;32866;50.160;14.768;2023-01-16T08:51:42;97709.44;;;2.88;100.00
46876;BME280;32866;50.160;14.768;2023-01-16T08:54:08;97708.41;;;2.98;100.00
46876;BME280;32866;50.160;14.768;2023-01-16T08:56:33;97696.03;;;2.84;100.00
46876;BME280;32866;50.160;14.768;2023-01-16T08:58:59;97680.78;;;2.90;100.00
46876;BME280;32866;50.160;14.768;2023-01-16T09:01:24;97695.50;;;3.19;100.00
46876;BME280;32866;50.160;14.768;2023-01-16T09:06:25;97634.53;;;3.14;100.00
46876;BME280;32866;50.160;14.768;2023-01-16T09:08:51;97671.22;;;3.83;100.00
46876;BME280;32866;50.160;14.768;2023-01-16T09:11:16;97645.09;;;3.89;100.00
46876;BME280;32866;50.160;14.768;2023-01-16T09:14:00;97673.03;;;4.24;100.00
46876;BME280;32866;50.160;14.768;2023-01-16T09:16:26;97627.19;;;4.04;100.00
46876;BME280;32866;50.160;14.768;2023-01-16T09:18:52;97620.06;;;3.85;100.00
46876;BME280;32866;50.160;14.768;2023-01-16T09:21:18;97652.22;;;4.08;100.00
46876;BME280;32866;50.160;14.768;2023-01-16T09:23:45;97641.31;;;3.99;100.00
46876;BME280;32866;50.160;14.768;2023-01-16T09:26:11;97643.78;;;3.94;100.00
46876;BME280;32866;50.160;14.768;2023-01-16T09:28:36;97611.50;;;3.74;100.00
46876;BME280;32866;50.160;14.768;2023-01-16T09:31:02;97596.69;;;3.65;100.00
46876;BME280;32866;50.160;14.768;2023-01-16T09:33:27;97632.19;;;3.93;100.00
46876;BME280;32866;50.160;14.768;2023-01-16T09:35:52;97608.47;;;3.97;100.00
46876;BME280;32866;50.160;14.768;2023-01-16T09:38:18;97624.56;;;4.14;100.00
46876;BME280;32866;50.160;14.768;2023-01-16T09:40:47;97596.66;;;3.91;100.00
46876;BME280;32866;50.160;14.768;2023-01-16T09:46:19;97602.81;;;4.39;100.00
46876;BME280;32866;50.160;14.768;2023-01-16T09:48:51;97604.88;;;4.70;100.00
46876;BME280;32866;50.160;14.768;2023-01-16T09:51:26;97600.44;;;4.86;100.00
46876;BME280;32866;50.160;14.768;2023-01-16T09:53:57;97579.72;;;5.01;100.00
46876;BME280;32866;50.160;14.768;2023-01-16T09:56:46;97596.31;;;5.56;100.00
46876;BME280;32866;50.160;14.768;2023-01-16T09:59:36;97580.88;;;5.94;100.00
46876;BME280;32866;50.160;14.768;2023-01-16T10:04:42;97579.59;;;6.63;100.00
46876;BME280;32866;50.160;14.768;2023-01-16T10:09:40;97563.81;;;7.47;100.00
46876;BME280;32866;50.160;14.768;2023-01-16T10:12:11;97554.75;;;7.98;100.00
46876;BME280;32866;50.160;14.768;2023-01-16T10:14:52;97559.97;;;7.87;100.00
46876;BME280;32866;50.160;14.768;2023-01-16T10:20:16;97547.88;;;8.27;100.00
46876;BME280;32866;50.160;14.768;2023-01-16T10:25:43;97506.72;;;7.10;100.00
46876;BME280;32866;50.160;14.768;2023-01-16T10:36:27;97503.56;;;8.71;100.00
46876;BME280;32866;50.160;14.768;2023-01-16T10:38:59;97463.63;;;8.74;100.00
46876;BME280;32866;50.160;14.768;2023-01-16T10:41:28;97491.88;;;9.01;100.00
46876;BME280;32866;50.160;14.768;2023-01-16T10:44:32;97477.09;;;9.43;100.00
46876;BME280;32866;50.160;14.768;2023-01-16T10:47:21;97476.66;;;9.50;100.00
46876;BME280;32866;50.160;14.768;2023-01-16T10:50:06;97465.97;;;9.32;100.00
46876;BME280;32866;50.160;14.768;2023-01-16T10:52:32;97462.88;;;9.59;98.64
46876;BME280;32866;50.160;14.768;2023-01-16T10:54:58;97456.47;;;9.83;97.60
46876;BME280;32866;50.160;14.768;2023-01-16T10:57:25;97466.56;;;10.18;94.94
46876;BME280;32866;50.160;14.768;2023-01-16T10:59:54;97440.16;;;10.15;92.73
46876;BME280;32866;50.160;14.768;2023-01-16T11:02:34;97434.44;;;9.92;89.83
46876;BME280;32866;50.160;14.768;2023-01-16T11:05:22;97408.19;;;9.80;90.91
46876;BME280;32866;50.160;14.768;2023-01-16T11:07:48;97424.09;;;10.28;90.26
46876;BME280;32866;50.160;14.768;2023-01-16T11:10:14;97403.88;;;10.20;88.06
46876;BME280;32866;50.160;14.768;2023-01-16T11:12:40;97392.63;;;10.38;85.88
46876;BME280;32866;50.160;14.768;2023-01-16T11:15:24;97374.63;;;9.59;81.52
46876;BME280;32866;50.160;14.768;2023-01-16T11:18:26;97396.59;;;11.01;80.71
46876;BME280;32866;50.160;14.768;2023-01-16T11:21:00;97380.59;;;12.14;71.54
46876;BME280;32866;50.160;14.768;2023-01-16T11:23:35;97349.59;;;11.91;63.86
46876;BME280;32866;50.160;14.768;2023-01-16T11:26:01;97372.03;;;11.84;61.72
46876;BME280;32866;50.160;14.768;2023-01-16T11:28:29;97332.19;;;12.00;61.86
46876;BME280;32866;50.160;14.768;2023-01-16T11:31:20;97319.84;;;13.03;58.94
46876;BME280;32866;50.160;14.768;2023-01-16T11:33:49;97348.53;;;13.24;51.60
46876;BME280;32866;50.160;14.768;2023-01-16T11:36:20;97342.78;;;13.33;51.53
46876;BME280;32866;50.160;14.768;2023-01-16T11:38:47;97298.19;;;12.71;51.50
46876;BME280;32866;50.160;14.768;2023-01-16T11:41:17;97331.50;;;13.43;49.66
46876;BME280;32866;50.160;14.768;2023-01-16T11:43:43;97293.13;;;14.03;48.33
46876;BME280;32866;50.160;14.768;2023-01-16T11:48:54;97294.63;;;16.55;41.90
46876;BME280;32866;50.160;14.768;2023-01-16T11:51:28;97293.25;;;16.62;40.37
46876;BME280;32866;50.160;14.768;2023-01-16T11:53:55;97276.19;;;15.99;39.50
46876;BME280;32866;50.160;14.768;2023-01-16T11:59:07;97276.06;;;16.23;38.41
46876;BME280;32866;50.160;14.768;2023-01-16T12:01:42;97267.47;;;15.94;39.87
46876;BME280;32866;50.160;14.768;2023-01-16T12:04:31;97246.53;;;16.31;38.83
46876;BME280;32866;50.160;14.768;2023-01-16T12:09:41;97234.81;;;15.61;40.91
46876;BME280;32866;50.160;14.768;2023-01-16T12:12:45;97207.63;;;15.13;41.14
46876;BME280;32866;50.160;14.768;2023-01-16T12:15:21;97209.22;;;15.79;40.58
46876;BME280;32866;50.160;14.768;2023-01-16T12:28:27;97170.84;;;15.24;45.83
46876;BME280;32866;50.160;14.768;2023-01-16T12:31:09;97157.38;;;15.01;44.75
46876;BME280;32866;50.160;14.768;2023-01-16T12:39:58;97126.72;;;14.86;45.82
46876;BME280;32866;50.160;14.768;2023-01-16T12:48:24;97108.25;;;13.33;49.06
46876;BME280;32866;50.160;14.768;2023-01-16T12:56:48;97092.97;;;12.96;49.27
46876;BME280;32866;50.160;14.768;2023-01-16T12:59:30;97081.50;;;12.50;50.23
46876;BME280;32866;50.160;14.768;2023-01-16T13:05:05;97078.69;;;11.92;51.10
46876;BME280;32866;50.160;14.768;2023-01-16T13:07:37;97059.63;;;12.16;52.50
46876;BME280;32866;50.160;14.768;2023-01-16T13:12:54;97049.06;;;11.45;52.96
46876;BME280;32866;50.160;14.768;2023-01-16T13:15:41;97040.34;;;11.46;53.39
46876;BME280;32866;50.160;14.768;2023-01-16T13:18:21;97039.81;;;11.31;53.90
46876;BME280;32866;50.160;14.768;2023-01-16T13:20:52;97025.13;;;11.17;54.61
46876;BME280;32866;50.160;14.768;2023-01-16T13:23:21;97019.63;;;10.72;53.94
46876;BME280;32866;50.160;14.768;2023-01-16T13:25:54;96982.34;;;10.09;54.15
46876;BME280;32866;50.160;14.768;2023-01-16T13:28:38;97006.53;;;10.21;54.03
46876;BME280;32866;50.160;14.768;2023-01-16T13:31:15;96966.16;;;9.99;58.22
46876;BME280;32866;50.160;14.768;2023-01-16T13:33:43;96999.38;;;10.35;56.20
46876;BME280;32866;50.160;14.768;2023-01-16T13:36:48;96969.09;;;9.84;57.00
46876;BME280;32866;50.160;14.768;2023-01-16T13:42:06;96991.25;;;9.92;57.91
46876;BME280;32866;50.160;14.768;2023-01-16T13:44:42;96981.31;;;9.89;58.72
46876;BME280;32866;50.160;14.768;2023-01-16T13:47:30;96990.34;;;9.63;60.39
46876;BME280;32866;50.160;14.768;2023-01-16T13:52:44;96958.69;;;8.18;64.63
46876;BME280;32866;50.160;14.768;2023-01-16T13:57:48;96973.41;;;6.94;71.16
46876;BME280;32866;50.160;14.768;2023-01-16T14:00:18;96968.66;;;6.59;71.12
46876;BME280;32866;50.160;14.768;2023-01-16T14:02:45;96963.03;;;6.62;71.22
46876;BME280;32866;50.160;14.768;2023-01-16T14:13:31;96928.88;;;5.92;76.50
46876;BME280;32866;50.160;14.768;2023-01-16T14:16:01;96961.66;;;6.28;73.54
46876;BME280;32866;50.160;14.768;2023-01-16T14:21:42;96949.06;;;6.01;85.32
46876;BME280;32866;50.160;14.768;2023-01-16T14:24:26;96945.19;;;5.92;83.76
46876;BME280;32866;50.160;14.768;2023-01-16T14:26:58;96944.13;;;5.75;85.84
46876;BME280;32866;50.160;14.768;2023-01-16T14:29:48;96942.25;;;5.57;79.95
46876;BME280;32866;50.160;14.768;2023-01-16T14:37:21;96876.25;;;5.17;82.05
46876;BME280;32866;50.160;14.768;2023-01-16T14:39:56;96882.03;;;5.10;83.96
46876;BME280;32866;50.160;14.768;2023-01-16T14:48:08;96899.63;;;4.91;95.76
46876;BME280;32866;50.160;14.768;2023-01-16T14:51:27;96909.97;;;4.68;100.00
46876;BME280;32866;50.160;14.768;2023-01-16T14:54:31;96914.84;;;4.55;100.00
46876;BME280;32866;50.160;14.768;2023-01-16T14:57:23;96916.66;;;4.49;100.00
46876;BME280;32866;50.160;14.768;2023-01-16T15:00:05;96921.34;;;4.48;100.00
46876;BME280;32866;50.160;14.768;2023-01-16T15:02:58;96927.22;;;4.37;100.00
46876;BME280;32866;50.160;14.768;2023-01-16T15:05:34;96914.63;;;4.25;100.00
46876;BME280;32866;50.160;14.768;2023-01-16T15:08:21;96918.84;;;4.17;100.00
46876;BME280;32866;50.160;14.768;2023-01-16T15:10:51;96926.84;;;4.11;100.00
46876;BME280;32866;50.160;14.768;2023-01-16T15:13:29;96917.53;;;3.84;100.00
46876;BME280;32866;50.160;14.768;2023-01-16T15:16:21;96915.13;;;3.96;100.00
46876;BME280;32866;50.160;14.768;2023-01-16T15:19:19;96908.03;;;3.80;100.00
46876;BME280;32866;50.160;14.768;2023-01-16T15:22:15;96913.47;;;3.70;100.00
46876;BME280;32866;50.160;14.768;2023-01-16T15:24:45;96895.25;;;3.52;100.00
46876;BME280;32866;50.160;14.768;2023-01-16T15:27:21;96882.72;;;3.37;100.00
46876;BME280;32866;50.160;14.768;2023-01-16T15:30:02;96914.66;;;3.51;100.00
46876;BME280;32866;50.160;14.768;2023-01-16T15:32:29;96913.28;;;3.37;100.00
46876;BME280;32866;50.160;14.768;2023-01-16T15:35:15;96910.72;;;3.43;100.00
46876;BME280;32866;50.160;14.768;2023-01-16T15:37:51;96911.94;;;3.51;100.00
46876;BME280;32866;50.160;14.768;2023-01-16T15:40:35;96914.66;;;3.51;100.00